Aérodrome :
LOGIN :

S'inscrire | Disclaimer

   EN    FR    IT 

 










Légende :    VFR   VFR Marginal   IFR   IFR Intensif   IFR Très Intensif
Visi : 
Plafond : 
>= 8 km
>= 3000ft
5 à 8 km
1000 à 3000 ft
1500m à 5 km
500 à 1000 ft
800 à 1500m
200 à 500 ft
< 800m
< 200 ft
Symboles :   Orages  Brouillard  Fortes neiges  Fortes précipitations  Vent > 20 kt
SIGMETs :   Divers  Orages  Givrage  Turbulence  Onde Orograph.  Cendres Volcan.







- Altitude de l'aérodrome : 325 ft
- Code IATA : BES
- Voir les cartes d'approche


LFRB - Brest

DERNIER METAR :
  • 220000Z AUTO 25017KT 3700 -RA BR OVC004 12/12 Q1016 BECMG 26020G32KT 2000 RA

METARs EXPIRÉS :
  • 212330Z AUTO 25016KT 3400 -RA BR OVC004 12/11 Q1016 BECMG 26020G32KT 2000 RA
  • 212300Z AUTO 25017G29KT 3800 -RADZ BR OVC003 12/11 Q1016 BECMG 9999 NSW BKN010
  • 212230Z AUTO 25017KT 5000 BR OVC004 12/11 Q1016 TEMPO 2000 RA BECMG 20020G32KT BKN010
  • 212200Z AUTO 26015KT 230V290 4200 BR OVC003 12/11 Q1016 TEMPO 26016G32KT 2000 RA
  • 212130Z AUTO 26015KT 7000 OVC005 12/12 Q1016 TEMPO 26016G32KT 2000 RA
  • 212100Z AUTO 26017G29KT 220V290 3100 -RA BR OVC004 12/11 Q1017 TEMPO 2000 RA

TAF TAF LFRB
Valide du 22 à 00h jusqu'au 23 à 06h UTC


212300Z 2200/2306 26016KT 5000 OVC004
BECMG 2200/2202 26020G32KT 2000 RA OVC002
TEMPO 2206/2210 32030G46KT
BECMG 2208/2210 9999 BKN016
BECMG 2210/2212 32012KT SCT020
BECMG 2218/2220 20014KT BKN014
BECMG 2220/2222 RA OVC015
BECMG 2300/2304 20012G22KT
ATIS : +33 2 98 32 02 71
Pas de NOTAMs connus pour ce terrain.



MET'MAP, la Météo Aéronautique d'un coup d'oeil ! - Copyright ORBIFLY Décembre 2007 - Disclaimer

ORBIFLY MET'MAP TEAM :

Programmation & Développement : Alexandra Zaïnal
Conception & Développement : Baudouin d'Aumeries
Co-Programmation & Développement : Marc-Olivier Méhu
Soutien technique & logistique : Manuel Goepfert

Contact : metmap@orbifly.com




SOURCES & CREDITS :

   NOAA